Time;durP1;ratioP1;P1;durP2;ratioP2;P2;SDS_P1;SDS_P2;PMS_P1;PMS_P2;Temp;Humidity;BMP_temperature;BMP_pressure;BME280_temperature;BME280_humidity;BME280_pressure;Samples;Min_cycle;Max_cycle;Signal;HPM_P1;HPM_P2
2022/11/27 07:53:16;;;;;;;10.05;5.82;;;3.90;99.90;;;;;;5573586;23;20103;-69
2022/11/27 07:55:42;;;;;;;10.03;5.47;;;3.90;99.90;;;;;;4911012;29;20107;-66
2022/11/27 07:58:08;;;;;;;10.80;6.10;;;4.00;99.90;;;;;;4898569;29;20031;-67
2022/11/27 08:00:34;;;;;;;10.25;5.97;;;4.00;99.90;;;;;;4898726;29;20040;-66
2022/11/27 08:03:00;;;;;;;10.40;5.65;;;3.90;99.90;;;;;;4912839;29;20037;-69
2022/11/27 08:05:26;;;;;;;9.63;5.68;;;3.80;99.90;;;;;;4897803;29;20088;-67
2022/11/27 08:07:53;;;;;;;9.07;5.50;;;3.90;99.90;;;;;;4896393;29;20036;-68
2022/11/27 08:10:19;;;;;;;9.80;5.60;;;3.90;99.90;;;;;;4898252;29;20032;-66
2022/11/27 08:12:44;;;;;;;6.90;4.72;;;4.00;99.90;;;;;;4899497;29;20039;-69
2022/11/27 08:15:10;;;;;;;9.60;6.00;;;4.10;99.90;;;;;;4899789;29;20024;-67
2022/11/27 08:17:36;;;;;;;10.15;5.57;;;4.10;99.90;;;;;;4902492;29;20137;-66
2022/11/27 08:20:03;;;;;;;11.43;6.00;;;4.10;99.90;;;;;;4896964;29;20506;-68
2022/11/27 08:22:28;;;;;;;8.70;5.85;;;4.20;99.90;;;;;;4897404;29;20032;-66
2022/11/27 08:24:54;;;;;;;8.37;5.43;;;4.20;99.90;;;;;;4893094;29;20033;-64
2022/11/27 08:27:19;;;;;;;8.60;5.47;;;4.40;99.90;;;;;;4883015;29;20041;-67
2022/11/27 08:29:46;;;;;;;6.37;4.67;;;4.40;99.90;;;;;;4879077;29;20032;-67
2022/11/27 08:32:12;;;;;;;;;;;4.50;99.90;;;;;;4882227;29;20032;-68
2022/11/27 08:34:37;;;;;;;7.55;4.72;;;4.50;99.90;;;;;;4882482;29;19920;-69
2022/11/27 08:37:07;;;;;;;8.10;5.37;;;4.40;99.90;;;;;;4901313;29;20490;-72
2022/11/27 08:39:32;;;;;;;6.22;4.28;;;4.30;99.90;;;;;;4902217;29;20045;-69
2022/11/27 08:41:58;;;;;;;7.10;4.68;;;4.20;99.90;;;;;;4902139;29;20442;-69
2022/11/27 08:44:24;;;;;;;7.53;5.07;;;4.20;99.90;;;;;;4901949;29;20036;-69
2022/11/27 08:46:49;;;;;;;7.57;5.10;;;4.20;99.90;;;;;;4902174;29;20025;-69
2022/11/27 08:49:15;;;;;;;9.00;5.47;;;4.30;99.90;;;;;;4901693;29;20029;-69
2022/11/27 08:51:40;;;;;;;8.43;5.83;;;4.40;99.90;;;;;;4902656;29;20500;-69
2022/11/27 08:54:06;;;;;;;8.43;5.80;;;4.60;99.90;;;;;;4902598;29;20494;-68
2022/11/27 08:56:32;;;;;;;7.57;4.97;;;4.60;99.90;;;;;;4902234;29;20101;-69
2022/11/27 08:58:57;;;;;;;6.97;4.73;;;5.00;99.90;;;;;;4901148;29;20033;-70
2022/11/27 09:01:28;;;;;;;7.33;5.07;;;5.20;99.90;;;;;;4901605;29;20049;-69
2022/11/27 09:03:54;;;;;;;8.95;5.50;;;5.30;99.90;;;;;;4894581;29;20069;-66
2022/11/27 09:06:27;;;;;;;8.40;4.90;;;5.40;99.90;;;;;;4896783;29;20073;-67
2022/11/27 09:08:55;;;;;;;6.57;4.72;;;5.50;99.90;;;;;;4901824;29;20387;-67
2022/11/27 09:11:21;;;;;;;8.90;5.53;;;5.40;99.90;;;;;;4901579;29;20386;-67
2022/11/27 09:13:47;;;;;;;6.10;4.90;;;5.30;99.90;;;;;;4900307;29;20063;-68
2022/11/27 09:16:16;;;;;;;6.90;4.97;;;5.40;99.90;;;;;;4902822;29;20080;-67
2022/11/27 09:18:45;;;;;;;8.15;5.38;;;5.30;99.90;;;;;;4906018;29;20023;-66
2022/11/27 09:21:12;;;;;;;10.00;5.50;;;5.40;99.90;;;;;;4902943;29;20021;-67
2022/11/27 09:23:39;;;;;;;9.35;6.32;;;5.30;99.90;;;;;;4900634;29;20476;-66
2022/11/27 09:26:15;;;;;;;8.48;5.72;;;5.40;99.90;;;;;;4894490;29;20040;-69
2022/11/27 09:28:42;;;;;;;7.75;5.38;;;5.60;99.90;;;;;;4883148;29;20137;-71
2022/11/27 09:31:10;;;;;;;8.38;5.57;;;5.80;99.90;;;;;;4893231;29;20024;-69
2022/11/27 09:33:37;;;;;;;9.63;5.93;;;5.80;99.90;;;;;;4901356;29;20028;-68
2022/11/27 09:36:11;;;;;;;9.50;5.47;;;5.80;99.90;;;;;;4901890;29;20024;-70
2022/11/27 09:38:37;;;;;;;7.65;6.22;;;5.70;99.90;;;;;;4901598;29;20032;-71
2022/11/27 09:41:18;;;;;;;8.73;6.15;;;5.70;99.90;;;;;;4901753;29;20024;-72
2022/11/27 09:43:58;;;;;;;10.20;6.78;;;5.60;99.90;;;;;;4892034;29;20052;-70
2022/11/27 09:46:51;;;;;;;9.50;6.90;;;5.80;99.90;;;;;;4883072;29;20033;-71
2022/11/27 09:49:24;;;;;;;11.05;7.28;;;5.40;99.90;;;;;;4894408;29;20040;-70
2022/11/27 09:51:59;;;;;;;12.50;8.13;;;5.30;99.90;;;;;;4880606;29;20033;-70
2022/11/27 09:54:53;;;;;;;12.65;8.00;;;5.40;99.90;;;;;;4880274;29;20040;-71
2022/11/27 09:57:35;;;;;;;13.98;9.38;;;5.80;99.90;;;;;;4883046;29;20386;-71
2022/11/27 10:00:10;;;;;;;15.75;9.10;;;6.10;99.90;;;;;;4887053;29;20025;-71
2022/11/27 10:02:35;;;;;;;18.65;11.35;;;6.10;99.90;;;;;;4891006;29;20035;-71
2022/11/27 10:05:10;;;;;;;18.93;10.80;;;6.20;99.90;;;;;;4885502;29;20033;-71
2022/11/27 10:07:57;;;;;;;18.55;11.20;;;6.10;99.90;;;;;;4881262;29;20033;-71
2022/11/27 10:10:40;;;;;;;21.42;12.52;;;5.80;99.90;;;;;;4880426;29;20028;-71
2022/11/27 10:13:05;;;;;;;18.75;11.65;;;5.90;99.90;;;;;;4887456;29;20108;-72
2022/11/27 10:16:21;;;;;;;20.13;11.87;;;6.00;99.90;;;;;;4898664;29;20133;-70
2022/11/27 10:18:56;;;;;;;20.40;11.68;;;6.20;99.90;;;;;;4860441;29;20223;-71
2022/11/27 10:21:39;;;;;;;19.90;11.50;;;6.20;99.90;;;;;;4845691;29;20074;-70
2022/11/27 10:24:28;;;;;;;20.95;11.45;;;6.00;99.90;;;;;;4845417;29;20054;-71
2022/11/27 10:26:57;;;;;;;32.05;17.73;;;5.80;99.90;;;;;;4845559;29;20026;-71
2022/11/27 10:29:38;;;;;;;25.90;13.70;;;5.80;99.90;;;;;;4845044;29;20329;-71
2022/11/27 10:32:13;;;;;;;25.83;15.00;;;5.80;99.90;;;;;;4860639;29;20074;-71
2022/11/27 10:34:44;;;;;;;26.55;13.93;;;5.70;99.90;;;;;;4860641;29;20383;-71
2022/11/27 10:37:20;;;;;;;25.58;13.07;;;5.90;99.90;;;;;;4860411;29;20030;-70
2022/11/27 10:39:55;;;;;;;27.27;14.48;;;5.90;99.90;;;;;;4860902;29;20045;-71
2022/11/27 10:42:39;;;;;;;39.78;25.80;;;5.70;99.90;;;;;;4843518;29;20037;-71
2022/11/27 10:45:19;;;;;;;25.83;14.38;;;5.50;99.90;;;;;;4842029;29;20034;-70
2022/11/27 10:47:47;;;;;;;27.35;15.05;;;5.40;99.90;;;;;;4843352;29;20075;-69
2022/11/27 10:50:16;;;;;;;29.73;16.80;;;5.30;99.90;;;;;;4859329;29;20566;-70
2022/11/27 10:52:56;;;;;;;25.88;15.20;;;5.30;99.90;;;;;;4857914;29;20460;-70
2022/11/27 10:55:49;;;;;;;24.10;14.68;;;5.30;99.90;;;;;;4885253;29;20407;-72
2022/11/27 10:58:41;;;;;;;25.42;13.93;;;5.30;99.90;;;;;;4894613;29;20115;-72
2022/11/27 11:01:12;;;;;;;21.75;12.75;;;5.40;99.90;;;;;;4889836;29;20039;-69
2022/11/27 11:03:38;;;;;;;49.35;31.17;;;5.60;99.90;;;;;;4896553;29;20041;-70
2022/11/27 11:06:11;;;;;;;25.73;12.85;;;5.40;99.90;;;;;;4897655;29;20443;-70
2022/11/27 11:08:37;;;;;;;26.83;13.85;;;5.50;99.90;;;;;;4898999;29;20044;-68
2022/11/27 11:11:06;;;;;;;26.57;14.00;;;5.50;99.90;;;;;;4897851;29;20120;-70
2022/11/27 11:13:36;;;;;;;27.50;13.85;;;5.70;99.90;;;;;;4898552;29;20028;-70
2022/11/27 11:16:05;;;;;;;22.13;12.35;;;5.90;99.90;;;;;;4898996;29;20091;-70
2022/11/27 11:18:33;;;;;;;20.20;11.88;;;6.10;99.90;;;;;;4899307;29;20021;-71
2022/11/27 11:21:03;;;;;;;23.92;13.23;;;6.10;99.90;;;;;;4898762;29;20398;-69
2022/11/27 11:23:35;;;;;;;24.48;13.35;;;6.20;99.90;;;;;;4897147;29;20036;-70
2022/11/27 11:26:04;;;;;;;25.73;14.32;;;6.10;99.90;;;;;;4890335;29;20402;-70
2022/11/27 11:28:33;;;;;;;26.83;13.70;;;6.20;99.90;;;;;;4898532;29;20092;-70
2022/11/27 11:31:05;;;;;;;23.88;13.48;;;6.20;99.90;;;;;;4898396;29;20107;-71
2022/11/27 11:33:46;;;;;;;26.33;14.73;;;5.90;99.90;;;;;;4898009;29;20133;-71
2022/11/27 11:36:12;;;;;;;29.77;14.32;;;5.90;99.90;;;;;;4912237;29;20029;-71
2022/11/27 11:38:43;;;;;;;26.80;15.20;;;5.70;99.90;;;;;;4895561;29;20032;-69
2022/11/27 11:41:11;;;;;;;31.83;16.13;;;5.60;99.90;;;;;;4888215;29;20036;-69
2022/11/27 11:43:36;;;;;;;37.85;21.73;;;5.40;99.90;;;;;;4879506;29;20025;-70
2022/11/27 11:46:16;;;;;;;27.77;16.27;;;5.50;99.90;;;;;;4878719;29;20036;-73
2022/11/27 11:49:03;;;;;;;31.08;16.58;;;5.50;99.90;;;;;;4881745;29;20033;-70
2022/11/27 11:51:40;;;;;;;28.88;15.18;;;5.50;99.90;;;;;;4903877;29;20035;-71
2022/11/27 11:54:38;;;;;;;29.27;16.20;;;5.50;99.90;;;;;;4908487;29;20048;-70
2022/11/27 11:57:14;;;;;;;35.00;16.75;;;5.50;99.90;;;;;;4896648;29;20035;-69
2022/11/27 12:00:04;;;;;;;28.23;15.47;;;5.40;99.90;;;;;;4894402;29;20494;-74
2022/11/27 12:02:56;;;;;;;29.88;16.48;;;5.70;99.90;;;;;;4882656;29;20293;-73
2022/11/27 12:05:54;;;;;;;32.78;16.67;;;5.90;99.90;;;;;;4899289;29;20446;-68
2022/11/27 12:08:58;;;;;;;29.35;15.85;;;6.00;99.90;;;;;;4897238;29;20509;-72
2022/11/27 12:11:45;;;;;;;30.35;16.13;;;6.00;99.90;;;;;;4826419;29;20038;-72
2022/11/27 12:14:15;;;;;;;27.67;16.08;;;6.10;99.90;;;;;;4825896;29;20030;-69
2022/11/27 12:16:49;;;;;;;27.45;15.00;;;6.20;99.90;;;;;;4826744;29;20038;-71
2022/11/27 12:19:33;;;;;;;27.85;14.68;;;6.10;99.90;;;;;;4826174;29;20027;-72
2022/11/27 12:22:36;;;;;;;28.48;14.98;;;6.00;99.90;;;;;;4826053;29;20099;-72
2022/11/27 12:25:21;;;;;;;24.35;12.93;;;6.30;99.90;;;;;;4832324;29;20110;-72
2022/11/27 12:28:01;;;;;;;26.45;13.80;;;6.50;99.90;;;;;;4828385;29;20057;-71
2022/11/27 12:30:52;;;;;;;25.55;13.23;;;6.50;99.90;;;;;;4831912;29;20022;-71
2022/11/27 12:33:30;;;;;;;26.98;14.35;;;6.50;99.90;;;;;;4826799;29;20029;-72
2022/11/27 12:36:10;;;;;;;24.83;13.32;;;6.50;99.90;;;;;;4833834;29;20041;-73
2022/11/27 12:38:52;;;;;;;23.08;13.20;;;6.40;99.90;;;;;;4820545;29;20042;-71
2022/11/27 12:41:43;;;;;;;27.55;13.60;;;6.40;99.90;;;;;;4827962;29;20508;-72
2022/11/27 12:44:24;;;;;;;24.10;12.55;;;6.20;99.90;;;;;;4830500;29;20095;-72
2022/11/27 12:47:21;;;;;;;27.80;13.30;;;6.30;99.90;;;;;;4836638;29;20034;-72
2022/11/27 12:50:17;;;;;;;24.60;12.20;;;6.20;99.90;;;;;;4903487;29;20037;-71
2022/11/27 12:52:49;;;;;;;27.45;15.35;;;6.00;99.90;;;;;;4899070;29;20033;-71
2022/11/27 12:55:20;;;;;;;26.45;13.68;;;5.90;99.90;;;;;;4900606;29;20174;-69
2022/11/27 12:57:50;;;;;;;22.35;12.50;;;6.00;99.90;;;;;;4916058;29;20029;-70
2022/11/27 13:00:21;;;;;;;23.48;13.00;;;6.10;99.90;;;;;;4900561;29;20383;-69
2022/11/27 13:02:53;;;;;;;25.30;14.05;;;6.40;99.90;;;;;;4885013;29;20096;-69
2022/11/27 13:05:27;;;;;;;24.55;12.73;;;6.50;99.90;;;;;;4895138;29;20040;-70
2022/11/27 13:08:01;;;;;;;27.23;13.93;;;6.60;99.90;;;;;;4891040;29;20109;-72
2022/11/27 13:10:42;;;;;;;25.70;14.13;;;6.60;99.90;;;;;;4895527;29;20065;-70
2022/11/27 13:13:14;;;;;;;23.48;13.55;;;6.40;99.90;;;;;;4898741;29;20043;-73
2022/11/27 13:15:47;;;;;;;23.52;12.15;;;6.50;99.90;;;;;;4900490;29;20029;-74
2022/11/27 13:18:22;;;;;;;22.80;12.98;;;6.40;99.90;;;;;;4899455;29;20112;-71
2022/11/27 13:20:49;;;;;;;20.70;12.20;;;6.30;99.90;;;;;;4901096;29;20044;-73
2022/11/27 13:23:15;;;;;;;25.30;13.05;;;6.20;99.90;;;;;;4900797;29;20028;-71
2022/11/27 13:25:46;;;;;;;25.57;13.93;;;6.20;99.90;;;;;;4901356;29;20076;-69
2022/11/27 13:28:38;;;;;;;25.95;14.40;;;6.30;99.90;;;;;;4899479;29;20033;-71
2022/11/27 13:31:05;;;;;;;24.45;14.52;;;6.50;99.90;;;;;;4865596;29;20412;-69
2022/11/27 13:33:44;;;;;;;29.17;15.10;;;6.40;99.90;;;;;;4900388;29;20032;-70
2022/11/27 13:36:33;;;;;;;30.40;15.00;;;6.20;99.90;;;;;;4900934;29;20028;-70
2022/11/27 13:39:00;;;;;;;30.15;15.90;;;6.10;99.90;;;;;;4900443;29;20037;-70
2022/11/27 13:41:39;;;;;;;29.05;15.13;;;6.10;99.90;;;;;;4899455;29;20024;-73
2022/11/27 13:44:24;;;;;;;31.23;16.98;;;6.10;99.90;;;;;;4900061;29;20324;-72
2022/11/27 13:46:53;;;;;;;24.38;13.93;;;6.00;99.90;;;;;;4901034;29;20025;-72
2022/11/27 13:49:30;;;;;;;31.67;16.90;;;6.20;99.90;;;;;;4901723;29;20024;-71
2022/11/27 13:52:25;;;;;;;30.42;16.70;;;6.40;99.90;;;;;;4904605;29;20089;-72
2022/11/27 13:54:59;;;;;;;32.25;15.95;;;6.60;99.90;;;;;;4833699;29;20070;-72
2022/11/27 13:57:26;;;;;;;29.65;16.05;;;6.50;99.90;;;;;;4815506;29;20638;-73
2022/11/27 14:00:02;;;;;;;32.20;17.35;;;6.40;99.90;;;;;;4829140;29;20038;-73
2022/11/27 14:02:49;;;;;;;29.60;16.33;;;6.20;99.90;;;;;;4831916;29;20138;-72
2022/11/27 14:05:32;;;;;;;28.20;16.63;;;6.30;99.90;;;;;;4829841;29;20038;-70
2022/11/27 14:07:58;;;;;;;28.23;15.90;;;6.50;99.90;;;;;;4827965;29;20038;-71
2022/11/27 14:10:27;;;;;;;26.70;15.07;;;6.60;99.90;;;;;;4827012;29;20030;-71
2022/11/27 14:13:19;;;;;;;26.40;13.82;;;6.70;99.90;;;;;;4812043;29;20035;-73
2022/11/27 14:16:00;;;;;;;31.73;17.45;;;6.80;99.90;;;;;;4806931;29;20070;-74
2022/11/27 14:18:27;;;;;;;40.13;21.13;;;6.70;99.90;;;;;;4826176;29;20035;-73
2022/11/27 14:20:57;;;;;;;35.10;18.23;;;6.70;99.90;;;;;;4825703;29;20030;-74
2022/11/27 14:23:31;;;;;;;28.52;15.20;;;6.70;99.90;;;;;;4824729;29;20044;-73
2022/11/27 14:26:21;;;;;;;32.35;17.13;;;6.70;99.90;;;;;;4824275;29;20370;-73
2022/11/27 14:28:53;;;;;;;30.60;16.55;;;6.60;99.90;;;;;;4826313;29;20034;-74
2022/11/27 14:31:25;;;;;;;31.02;16.30;;;6.50;99.90;;;;;;4854529;29;20060;-67
2022/11/27 14:33:50;;;;;;;31.13;16.83;;;6.60;99.90;;;;;;4882330;29;20025;-67
2022/11/27 14:36:31;;;;;;;35.80;18.97;;;6.50;99.90;;;;;;4891919;29;20154;-68
2022/11/27 14:38:57;;;;;;;41.80;19.98;;;6.50;99.90;;;;;;4901639;29;20024;-72
2022/11/27 14:41:25;;;;;;;31.95;16.77;;;6.50;99.90;;;;;;4901282;29;20067;-69
2022/11/27 14:44:01;;;;;;;31.55;17.33;;;6.40;99.90;;;;;;4900766;29;20028;-68
2022/11/27 14:46:27;;;;;;;31.63;16.80;;;6.40;99.90;;;;;;4901230;29;20024;-68
2022/11/27 14:48:57;;;;;;;28.45;15.27;;;6.40;99.90;;;;;;4900758;29;20029;-67
2022/11/27 14:51:28;;;;;;;22.90;13.45;;;6.50;99.90;;;;;;4900699;29;20032;-70
2022/11/27 14:54:01;;;;;;;25.45;13.88;;;6.60;99.90;;;;;;4900215;29;20504;-69
2022/11/27 14:56:32;;;;;;;26.42;15.40;;;6.60;99.90;;;;;;4900654;29;20049;-68
2022/11/27 14:58:59;;;;;;;28.35;15.23;;;6.60;99.90;;;;;;4899624;29;20031;-71
2022/11/27 15:01:28;;;;;;;18.88;11.90;;;6.60;99.90;;;;;;4898018;29;20031;-69
2022/11/27 15:03:55;;;;;;;22.23;12.90;;;6.70;99.90;;;;;;4898616;29;20200;-69
2022/11/27 15:06:20;;;;;;;22.50;13.10;;;6.70;99.90;;;;;;4899047;29;20033;-70
2022/11/27 15:08:47;;;;;;;22.87;12.30;;;6.70;99.90;;;;;;4900181;29;20406;-68
2022/11/27 15:11:16;;;;;;;22.25;13.32;;;6.70;99.90;;;;;;4898870;29;20107;-68
2022/11/27 15:13:42;;;;;;;23.70;14.02;;;6.70;99.90;;;;;;4898172;29;20029;-68
2022/11/27 15:16:20;;;;;;;28.90;16.88;;;6.60;99.90;;;;;;4898450;29;20565;-70
2022/11/27 15:18:54;;;;;;;25.05;14.32;;;6.60;99.90;;;;;;4898919;29;20036;-69
2022/11/27 15:21:24;;;;;;;23.85;14.30;;;6.40;99.90;;;;;;4900203;29;20021;-71
2022/11/27 15:23:51;;;;;;;25.58;13.05;;;6.40;99.90;;;;;;4883342;29;20367;-71
2022/11/27 15:26:39;;;;;;;24.13;14.10;;;6.50;99.90;;;;;;4887627;29;20044;-72
2022/11/27 15:29:28;;;;;;;23.60;13.30;;;6.40;99.90;;;;;;4881789;29;20028;-72
2022/11/27 15:31:54;;;;;;;23.65;13.80;;;6.40;99.90;;;;;;4878985;29;20048;-69
2022/11/27 15:34:22;;;;;;;24.13;13.68;;;6.30;99.90;;;;;;4887813;29;20021;-70
2022/11/27 15:37:04;;;;;;;25.77;14.00;;;6.30;99.90;;;;;;4899869;29;20142;-74
2022/11/27 15:39:50;;;;;;;26.75;14.93;;;6.40;99.90;;;;;;4899829;29;20447;-73
2022/11/27 15:42:18;;;;;;;26.98;14.52;;;6.20;99.90;;;;;;4898828;29;20393;-72
2022/11/27 15:44:45;;;;;;;24.90;13.88;;;6.20;99.90;;;;;;4900112;29;20025;-72
2022/11/27 15:47:35;;;;;;;26.45;13.40;;;6.20;99.90;;;;;;4900706;29;20021;-70
2022/11/27 15:50:01;;;;;;;27.00;14.23;;;6.20;99.90;;;;;;4899588;29;20032;-71
2022/11/27 15:52:27;;;;;;;24.83;14.73;;;6.40;99.90;;;;;;4900139;29;20031;-70
2022/11/27 15:54:54;;;;;;;27.80;14.83;;;6.40;99.90;;;;;;4898538;29;20060;-68
2022/11/27 15:57:19;;;;;;;28.30;15.13;;;6.40;99.90;;;;;;4898636;29;20432;-68
2022/11/27 15:59:45;;;;;;;23.23;13.77;;;6.40;99.90;;;;;;4899626;29;20100;-71
2022/11/27 16:02:11;;;;;;;26.20;13.27;;;6.40;99.90;;;;;;4898010;29;20044;-71
2022/11/27 16:04:38;;;;;;;25.65;14.63;;;6.50;99.90;;;;;;4898154;29;20067;-71
2022/11/27 16:07:03;;;;;;;21.60;12.35;;;6.50;99.90;;;;;;4898461;29;20028;-70
2022/11/27 16:09:29;;;;;;;24.90;14.07;;;6.40;99.90;;;;;;4897359;29;20160;-70
2022/11/27 16:11:56;;;;;;;23.50;13.88;;;6.40;99.90;;;;;;4898308;29;20028;-69
2022/11/27 16:14:21;;;;;;;25.05;13.43;;;6.30;99.90;;;;;;4889683;29;20025;-73
2022/11/27 16:16:47;;;;;;;24.38;14.15;;;6.40;99.90;;;;;;4888321;29;20029;-72
2022/11/27 16:19:13;;;;;;;25.70;13.77;;;6.50;99.90;;;;;;4880940;29;20074;-72
2022/11/27 16:21:39;;;;;;;23.67;14.15;;;6.60;99.90;;;;;;4894903;29;20076;-78
2022/11/27 16:24:06;;;;;;;24.00;13.88;;;6.60;99.90;;;;;;4897949;29;20029;-75
2022/11/27 16:26:32;;;;;;;22.40;13.15;;;6.60;99.90;;;;;;4897197;29;20398;-69
2022/11/27 16:28:58;;;;;;;106.93;55.08;;;6.50;99.90;;;;;;4897967;29;20040;-71
2022/11/27 16:31:24;;;;;;;31.58;16.83;;;6.40;99.90;;;;;;4898290;29;20037;-73
2022/11/27 16:33:50;;;;;;;97.30;46.05;;;6.40;99.90;;;;;;4898485;29;20040;-73
2022/11/27 16:36:18;;;;;;;91.68;37.80;;;6.20;99.90;;;;;;4900135;29;20040;-75
2022/11/27 16:38:44;;;;;;;42.03;22.23;;;6.10;99.90;;;;;;4900045;29;20057;-73
2022/11/27 16:41:13;;;;;;;26.05;14.55;;;6.00;99.90;;;;;;4895163;29;20479;-70
2022/11/27 16:43:42;;;;;;;26.67;14.13;;;6.00;99.90;;;;;;4899917;29;20033;-73
2022/11/27 16:46:11;;;;;;;26.48;14.52;;;6.00;99.90;;;;;;4884925;29;20108;-74
2022/11/27 16:48:38;;;;;;;23.30;13.40;;;6.00;99.90;;;;;;4895843;29;20104;-73
2022/11/27 16:51:06;;;;;;;26.45;15.23;;;6.20;99.90;;;;;;4897904;29;20490;-72
2022/11/27 16:53:32;;;;;;;29.20;16.20;;;6.30;99.90;;;;;;4900719;29;20470;-74
2022/11/27 16:55:57;;;;;;;31.58;16.88;;;6.20;99.90;;;;;;4900260;29;20103;-67
2022/11/27 16:58:23;;;;;;;31.98;17.40;;;6.30;99.90;;;;;;4900641;29;20025;-67
2022/11/27 17:00:49;;;;;;;32.10;18.13;;;6.30;99.90;;;;;;4900656;29;20027;-67
2022/11/27 17:03:15;;;;;;;27.57;16.30;;;6.40;99.90;;;;;;4900829;29;20025;-67
2022/11/27 17:05:40;;;;;;;30.58;17.67;;;6.40;99.90;;;;;;4901144;29;20541;-68
2022/11/27 17:08:06;;;;;;;31.50;17.40;;;6.30;99.90;;;;;;4901839;29;20060;-68
2022/11/27 17:10:32;;;;;;;27.13;15.30;;;6.30;99.90;;;;;;4901036;29;20273;-70
2022/11/27 17:12:57;;;;;;;26.57;14.70;;;6.20;99.90;;;;;;4899755;29;20035;-69
2022/11/27 17:15:23;;;;;;;25.03;15.27;;;6.20;99.90;;;;;;4901034;29;20040;-70
2022/11/27 17:17:48;;;;;;;32.00;17.23;;;6.20;99.90;;;;;;4900975;29;20032;-69
2022/11/27 17:20:14;;;;;;;33.30;19.57;;;6.20;99.90;;;;;;4900746;29;20442;-71
2022/11/27 17:22:40;;;;;;;31.13;17.43;;;6.10;99.90;;;;;;4901033;29;20331;-70
2022/11/27 17:25:09;;;;;;;29.90;16.70;;;6.20;99.90;;;;;;4900983;29;20036;-70
2022/11/27 17:27:34;;;;;;;33.35;18.17;;;6.20;99.90;;;;;;4899355;29;20028;-69
2022/11/27 17:30:00;;;;;;;32.77;17.40;;;6.10;99.90;;;;;;4899445;29;20103;-70
2022/11/27 17:32:25;;;;;;;33.23;17.57;;;6.30;99.90;;;;;;4901665;29;20035;-70
2022/11/27 17:34:51;;;;;;;30.63;17.43;;;6.40;99.90;;;;;;4900329;29;20017;-69
2022/11/27 17:37:17;;;;;;;36.90;19.50;;;6.40;99.90;;;;;;4899467;29;20056;-70
2022/11/27 17:39:42;;;;;;;34.03;17.73;;;6.30;99.90;;;;;;4894457;29;20478;-71
2022/11/27 17:42:08;;;;;;;30.70;17.73;;;6.20;99.90;;;;;;4896339;29;20045;-68
2022/11/27 17:44:34;;;;;;;33.67;16.95;;;6.10;99.90;;;;;;4899936;29;20028;-68
2022/11/27 17:47:00;;;;;;;32.33;17.92;;;6.10;99.90;;;;;;4900703;29;20032;-72
2022/11/27 17:49:26;;;;;;;33.30;18.67;;;6.00;99.90;;;;;;4900685;29;20554;-68
2022/11/27 17:51:51;;;;;;;32.77;18.83;;;6.00;99.90;;;;;;4901328;29;20055;-70
2022/11/27 17:54:17;;;;;;;31.40;17.37;;;6.00;99.90;;;;;;4900581;29;20414;-71
2022/11/27 17:56:43;;;;;;;33.67;17.10;;;6.00;99.90;;;;;;4900162;29;20104;-70
2022/11/27 17:59:08;;;;;;;31.33;18.00;;;5.90;99.90;;;;;;4902837;29;20394;-70
2022/11/27 18:01:34;;;;;;;31.20;17.43;;;5.90;99.90;;;;;;4901940;29;20025;-68
2022/11/27 18:04:02;;;;;;;32.47;16.70;;;6.00;99.90;;;;;;4901924;29;20024;-71
2022/11/27 18:06:28;;;;;;;33.67;19.30;;;6.00;99.90;;;;;;4901897;29;20453;-70
2022/11/27 18:08:55;;;;;;;32.73;18.73;;;6.00;99.90;;;;;;4901716;29;20031;-70
2022/11/27 18:11:23;;;;;;;31.70;18.08;;;6.00;99.90;;;;;;4901880;29;20029;-67
2022/11/27 18:13:49;;;;;;;36.95;19.95;;;6.10;99.90;;;;;;4899698;29;20494;-68
2022/11/27 18:16:18;;;;;;;37.22;20.30;;;6.00;99.90;;;;;;4899855;29;20080;-69
2022/11/27 18:18:44;;;;;;;31.33;17.48;;;6.00;99.90;;;;;;4897304;29;20062;-70
2022/11/27 18:21:15;;;;;;;66.90;32.63;;;5.90;99.90;;;;;;4881882;29;20029;-71
2022/11/27 18:23:42;;;;;;;54.03;25.95;;;6.00;99.90;;;;;;4896970;29;20451;-68
2022/11/27 18:26:14;;;;;;;30.58;16.98;;;6.00;99.90;;;;;;4889942;29;20393;-69
2022/11/27 18:28:40;;;;;;;43.53;23.33;;;6.00;99.90;;;;;;4898706;29;20120;-68
2022/11/27 18:31:17;;;;;;;68.13;30.40;;;6.00;99.90;;;;;;4893944;29;20032;-71
2022/11/27 18:33:43;;;;;;;;;;;6.10;99.90;;;;;;4892414;29;20059;-69
2022/11/27 18:36:10;;;;;;;50.08;23.98;;;6.10;99.90;;;;;;4894437;29;19911;-69
2022/11/27 18:38:37;;;;;;;29.17;17.92;;;6.00;99.90;;;;;;4888737;29;20025;-71
2022/11/27 18:41:09;;;;;;;29.40;17.70;;;5.90;99.90;;;;;;4892974;29;20054;-70
2022/11/27 18:43:34;;;;;;;31.17;16.02;;;5.90;99.90;;;;;;4895937;29;20379;-73
2022/11/27 18:46:00;;;;;;;35.00;18.67;;;6.00;99.90;;;;;;4891438;29;20026;-73
2022/11/27 18:48:26;;;;;;;36.42;19.70;;;6.10;99.90;;;;;;4899763;29;20442;-74
2022/11/27 18:50:59;;;;;;;35.45;21.75;;;6.00;99.90;;;;;;4896646;29;20087;-73
2022/11/27 18:53:24;;;;;;;35.50;19.95;;;6.00;99.90;;;;;;4889193;29;20033;-73
2022/11/27 18:55:50;;;;;;;36.13;21.17;;;6.00;99.90;;;;;;4891197;29;20410;-73
2022/11/27 18:58:15;;;;;;;34.87;18.73;;;6.00;99.90;;;;;;4887484;29;20032;-72
2022/11/27 19:00:43;;;;;;;33.70;18.97;;;5.90;99.90;;;;;;4899848;29;20088;-73
2022/11/27 19:03:09;;;;;;;36.05;20.95;;;5.90;99.90;;;;;;4887401;29;20037;-73
2022/11/27 19:05:35;;;;;;;35.10;20.00;;;5.90;99.90;;;;;;4887807;29;20029;-74
2022/11/27 19:08:03;;;;;;;33.33;18.98;;;5.90;99.90;;;;;;4884001;29;20501;-73
2022/11/27 19:10:28;;;;;;;33.75;19.70;;;5.80;99.90;;;;;;4889864;29;20033;-74
2022/11/27 19:12:54;;;;;;;34.07;18.37;;;5.80;99.90;;;;;;4890971;29;20035;-75
2022/11/27 19:15:19;;;;;;;29.27;17.90;;;5.80;99.90;;;;;;4889123;29;20518;-73
2022/11/27 19:17:45;;;;;;;32.23;20.80;;;5.80;99.90;;;;;;4893251;29;20410;-75
2022/11/27 19:20:11;;;;;;;32.47;20.40;;;5.90;99.90;;;;;;4891363;29;20047;-73
2022/11/27 19:22:37;;;;;;;34.30;18.35;;;5.90;99.90;;;;;;4890104;29;20040;-73
2022/11/27 19:25:03;;;;;;;;;;;5.80;99.90;;;;;;4891472;29;20047;-74
2022/11/27 19:27:29;;;;;;;31.17;17.48;;;5.80;99.90;;;;;;4894115;29;19993;-75
2022/11/27 19:29:54;;;;;;;34.53;18.37;;;5.70;99.90;;;;;;4889897;29;20398;-73
2022/11/27 19:32:20;;;;;;;32.90;18.67;;;5.80;99.90;;;;;;4889549;29;20036;-74
2022/11/27 19:34:47;;;;;;;33.73;19.00;;;5.90;99.90;;;;;;4892103;29;20033;-75
2022/11/27 19:37:13;;;;;;;33.25;19.50;;;6.10;99.90;;;;;;4888142;29;20036;-75
2022/11/27 19:39:39;;;;;;;32.73;19.83;;;6.10;99.90;;;;;;4896346;29;20478;-74
2022/11/27 19:42:05;;;;;;;33.90;18.87;;;6.10;99.90;;;;;;4886192;29;20506;-74
2022/11/27 19:44:30;;;;;;;34.53;19.75;;;6.10;99.90;;;;;;4888584;29;20021;-74
2022/11/27 19:46:56;;;;;;;32.80;17.63;;;6.10;99.90;;;;;;4890686;29;20588;-75
2022/11/27 19:49:21;;;;;;;32.77;18.37;;;6.10;99.90;;;;;;4891954;29;20063;-75
2022/11/27 19:51:48;;;;;;;38.97;20.37;;;6.10;99.90;;;;;;4891337;29;20565;-73
2022/11/27 19:54:15;;;;;;;;;;;5.90;99.90;;;;;;4888805;29;20032;-73
2022/11/27 19:56:41;;;;;;;34.95;18.90;;;5.90;99.90;;;;;;4884997;29;20391;-72
2022/11/27 19:59:08;;;;;;;30.95;18.23;;;5.80;99.90;;;;;;4894224;29;20028;-74
2022/11/27 20:01:36;;;;;;;35.25;18.88;;;5.80;99.90;;;;;;4885756;29;20025;-74
2022/11/27 20:04:02;;;;;;;29.13;17.50;;;6.00;99.90;;;;;;4895307;29;20565;-73
2022/11/27 20:06:28;;;;;;;30.23;17.55;;;6.20;99.90;;;;;;4898148;29;20088;-73
2022/11/27 20:08:59;;;;;;;27.45;16.55;;;6.30;99.90;;;;;;4898834;29;20037;-73
2022/11/27 20:11:26;;;;;;;30.45;18.02;;;6.20;99.90;;;;;;4885127;29;20029;-72
2022/11/27 20:13:56;;;;;;;30.08;16.95;;;6.00;99.90;;;;;;4891787;29;20469;-73
2022/11/27 20:16:22;;;;;;;32.38;17.45;;;6.10;99.90;;;;;;4890433;29;20025;-74
2022/11/27 20:18:48;;;;;;;30.20;16.77;;;6.00;99.90;;;;;;4886844;29;20052;-74
2022/11/27 20:21:16;;;;;;;32.25;17.38;;;6.10;99.90;;;;;;4890314;29;20017;-73
2022/11/27 20:23:43;;;;;;;30.17;17.70;;;6.00;99.90;;;;;;4890719;29;20387;-73
2022/11/27 20:26:13;;;;;;;28.90;16.15;;;6.20;99.90;;;;;;4899606;29;20031;-74
2022/11/27 20:28:41;;;;;;;31.95;17.75;;;6.30;99.90;;;;;;4900909;29;20059;-74
2022/11/27 20:31:12;;;;;;;28.42;16.90;;;6.30;99.90;;;;;;4904865;29;20096;-74
2022/11/27 20:33:38;;;;;;;31.02;17.55;;;6.20;99.90;;;;;;4908266;29;20032;-73
2022/11/27 20:36:12;;;;;;;26.77;16.00;;;6.10;99.90;;;;;;4902958;29;20084;-73
2022/11/27 20:38:38;;;;;;;27.50;16.42;;;6.10;99.90;;;;;;4899660;29;20498;-74
2022/11/27 20:41:05;;;;;;;29.40;17.17;;;6.10;99.90;;;;;;4894484;29;20025;-73
2022/11/27 20:43:31;;;;;;;29.83;17.52;;;6.10;99.90;;;;;;4900056;29;20089;-73
2022/11/27 20:45:57;;;;;;;30.13;17.33;;;6.00;99.90;;;;;;4894837;29;20028;-73
2022/11/27 20:48:22;;;;;;;29.13;17.57;;;6.00;99.90;;;;;;4904861;29;20036;-73
2022/11/27 20:50:49;;;;;;;31.17;17.43;;;5.90;99.90;;;;;;4904321;29;20033;-73
2022/11/27 20:53:15;;;;;;;31.90;18.17;;;6.00;99.90;;;;;;4904507;29;20111;-74